KMRN/MRN METAR and TAF weather

Enter ICAO airport designator
Station Type Date Time Source
KMRN METAR 2019/05/25 15:40 UTC NOAA

KMRN 251540Z AUTO 00000KT 10SM SCT070 29/18 A3024 RMK AO2 T02890183


Station Type Date Time Source
KMRN Decoded METAR 2019/05/25 15:40 UTC NOAA

Morganton, Morganton-Lenoir Airport, NC, United States (KMRN) 35-49-17N 081-36-39W
May 25, 2019 - 11:40 AM EDT / 2019.05.25 1540 UTC
Wind: Calm:0
Visibility: 10 mile(s):0
Sky conditions: partly cloudy
Temperature: 84.0 F (28.9 C)
Dew Point: 64.9 F (18.3 C)
Relative Humidity: 52%
Pressure (altimeter): 30.24 in. Hg (1024 hPa)
ob: KMRN 251540Z AUTO 00000KT 10SM SCT070 29/18 A3024 RMK AO2 T02890183
cycle: 15

Station Type Date Time Source
KMRN TAF UTC NOAA

Error!

Example: see airport list